Aviation Digital Data Service (ADDS)

Output produced by METARs form (0654 UTC 20 March 2019)
found at http://www.aviationweather.gov/metar/data/
 
METAR text: RKPC 200613Z 06008KT 350V110 9999 BKN025 OVC080 16/09 Q1006 NOSIG RMK TS OVHD MOV NE
Conditions at: RKPC (JEJU INTL AIRPO , KR) observed 0613 UTC 20 March 2019
Temperature: 16.0°C (61°F)
Dewpoint: 9.0°C (48°F) [RH = 63%]
Pressure (altimeter): 29.70 inches Hg (1006.0 mb)
Winds: from the ENE (60 degrees) at 9 MPH (8 knots; 4.1 m/s)
Visibility: 6 or more miles (10+ km)
Ceiling: 2500 feet AGL
Clouds: broken clouds at 2500 feet AGL
overcast cloud deck at 8000 feet AGL
Weather: no significant weather observed at this time

METAR text: RKPC 200600Z 08011KT 060V130 7000 -TSRA FEW010CB BKN025 OVC080 15/10 Q1007 NOSIG
Conditions at: RKPC (JEJU INTL AIRPO , KR) observed 0600 UTC 20 March 2019
Temperature: 15.0°C (59°F)
Dewpoint: 10.0°C (50°F) [RH = 72%]
Pressure (altimeter): 29.73 inches Hg (1007.0 mb)
Winds: from the E (80 degrees) at 13 MPH (11 knots; 5.7 m/s)
Visibility: 4 miles ( 7 km)
Ceiling: 2500 feet AGL
Clouds: few clouds at 1000 feet AGL
broken clouds at 2500 feet AGL
overcast cloud deck at 8000 feet AGL
Weather: -TSRA  (light rain associated with thunderstorm(s))

METAR text: RKPC 200542Z 05007KT 010V090 7000 -TSRA FEW010CB BKN025 OVC080 15/09 Q1009 NOSIG RMK TS B 42 SW MOV NE
Conditions at: RKPC (JEJU INTL AIRPO , KR) observed 0542 UTC 20 March 2019
Temperature: 15.0°C (59°F)
Dewpoint: 9.0°C (48°F) [RH = 67%]
Pressure (altimeter): 29.79 inches Hg (1009.0 mb)
Winds: from the NE (50 degrees) at 8 MPH (7 knots; 3.6 m/s)
Visibility: 4 miles ( 7 km)
Ceiling: 2500 feet AGL
Clouds: few clouds at 1000 feet AGL
broken clouds at 2500 feet AGL
overcast cloud deck at 8000 feet AGL
Weather: -TSRA  (light rain associated with thunderstorm(s))

METAR text: RKPC 200500Z 22008G21KT 190V250 9999 -RA BKN030 OVC100 15/10 Q1013 NOSIG
Conditions at: RKPC (JEJU INTL AIRPO , KR) observed 0500 UTC 20 March 2019
Temperature: 15.0°C (59°F)
Dewpoint: 10.0°C (50°F) [RH = 72%]
Pressure (altimeter): 29.91 inches Hg (1013.0 mb)
Winds: from the SW (220 degrees) at 9 MPH (8 knots; 4.1 m/s)
gusting to 24 MPH (21 knots; 10.8 m/s)
Visibility: 6 or more miles (10+ km)
Ceiling: 3000 feet AGL
Clouds: broken clouds at 3000 feet AGL
overcast cloud deck at 10000 feet AGL
Weather: -RA  (light rain)

METAR text: RKPC 200400Z 32017G28KT 260V350 9999 SCT030 OVC100 17/03 Q1011 WS ALL RWY BECMG 6000 -RA
Conditions at: RKPC (JEJU INTL AIRPO , KR) observed 0400 UTC 20 March 2019
Temperature: 17.0°C (63°F)
Dewpoint: 3.0°C (37°F) [RH = 39%]
Pressure (altimeter): 29.85 inches Hg (1011.0 mb)
Winds: from the NW (320 degrees) at 20 MPH (17 knots; 8.7 m/s)
gusting to 32 MPH (28 knots; 14.4 m/s)
Visibility: 6 or more miles (10+ km)
Ceiling: 10000 feet AGL
Clouds: scattered clouds at 3000 feet AGL
overcast cloud deck at 10000 feet AGL
Weather: no significant weather observed at this time

METAR text: RKPC 200300Z 33004KT 270V010 9999 FEW030 BKN120 18/05 Q1011 NOSIG
Conditions at: RKPC (JEJU INTL AIRPO , KR) observed 0300 UTC 20 March 2019
Temperature: 18.0°C (64°F)
Dewpoint: 5.0°C (41°F) [RH = 42%]
Pressure (altimeter): 29.85 inches Hg (1011.0 mb)
Winds: from the NNW (330 degrees) at 5 MPH (4 knots; 2.1 m/s)
Visibility: 6 or more miles (10+ km)
Ceiling: 12000 feet AGL
Clouds: few clouds at 3000 feet AGL
broken clouds at 12000 feet AGL
Weather: no significant weather observed at this time

METAR text: RKPC 200200Z 25002KT 9999 FEW030 BKN150 16/08 Q1013 NOSIG
Conditions at: RKPC (JEJU INTL AIRPO , KR) observed 0200 UTC 20 March 2019
Temperature: 16.0°C (61°F)
Dewpoint: 8.0°C (46°F) [RH = 59%]
Pressure (altimeter): 29.91 inches Hg (1013.0 mb)
Winds: from the WSW (250 degrees) at 2 MPH (2 knots; 1.0 m/s)
Visibility: 6 or more miles (10+ km)
Ceiling: 15000 feet AGL
Clouds: few clouds at 3000 feet AGL
broken clouds at 15000 feet AGL
Weather: no significant weather observed at this time

METAR text: RKPC 200100Z 09003KT 360V130 8000 FEW030 BKN150 15/07 Q1013 NOSIG
Conditions at: RKPC (JEJU INTL AIRPO , KR) observed 0100 UTC 20 March 2019
Temperature: 15.0°C (59°F)
Dewpoint: 7.0°C (45°F) [RH = 59%]
Pressure (altimeter): 29.91 inches Hg (1013.0 mb)
Winds: from the E (90 degrees) at 3 MPH (3 knots; 1.5 m/s)
Visibility: 5 miles ( 8 km)
Ceiling: 15000 feet AGL
Clouds: few clouds at 3000 feet AGL
broken clouds at 15000 feet AGL
Weather: no significant weather observed at this time

METAR text: RKPC 200000Z 17001KT 8000 FEW030 BKN200 14/07 Q1014 NOSIG
Conditions at: RKPC (JEJU INTL AIRPO , KR) observed 0000 UTC 20 March 2019
Temperature: 14.0°C (57°F)
Dewpoint: 7.0°C (45°F) [RH = 63%]
Pressure (altimeter): 29.94 inches Hg (1014.0 mb)
Winds: from the S (170 degrees) at 1 MPH (1 knots; 0.5 m/s)
Visibility: 5 miles ( 8 km)
Ceiling: 20000 feet AGL
Clouds: few clouds at 3000 feet AGL
broken clouds at 20000 feet AGL
Weather: no significant weather observed at this time

METAR text: RKPC 192300Z 21002KT 8000 FEW030 BKN200 11/07 Q1014 NOSIG
Conditions at: RKPC (JEJU INTL AIRPO , KR) observed 2300 UTC 19 March 2019
Temperature: 11.0°C (52°F)
Dewpoint: 7.0°C (45°F) [RH = 76%]
Pressure (altimeter): 29.94 inches Hg (1014.0 mb)
Winds: from the SSW (210 degrees) at 2 MPH (2 knots; 1.0 m/s)
Visibility: 5 miles ( 8 km)
Ceiling: 20000 feet AGL
Clouds: few clouds at 3000 feet AGL
broken clouds at 20000 feet AGL
Weather: no significant weather observed at this time

METAR text: RKPC 192200Z 16007KT 9000 FEW030 BKN180 10/04 Q1014 NOSIG
Conditions at: RKPC (JEJU INTL AIRPO , KR) observed 2200 UTC 19 March 2019
Temperature: 10.0°C (50°F)
Dewpoint: 4.0°C (39°F) [RH = 66%]
Pressure (altimeter): 29.94 inches Hg (1014.0 mb)
Winds: from the SSE (160 degrees) at 8 MPH (7 knots; 3.6 m/s)
Visibility: 6 miles ( 9 km)
Ceiling: 18000 feet AGL
Clouds: few clouds at 3000 feet AGL
broken clouds at 18000 feet AGL
Weather: no significant weather observed at this time

METAR text: RKPC 192100Z 21004KT 9000 FEW030 SCT180 09/04 Q1015 NOSIG
Conditions at: RKPC (JEJU INTL AIRPO , KR) observed 2100 UTC 19 March 2019
Temperature: 9.0°C (48°F)
Dewpoint: 4.0°C (39°F) [RH = 71%]
Pressure (altimeter): 29.97 inches Hg (1015.0 mb)
Winds: from the SSW (210 degrees) at 5 MPH (4 knots; 2.1 m/s)
Visibility: 6 miles ( 9 km)
Ceiling: at least 12,000 feet AGL
Clouds: few clouds at 3000 feet AGL
scattered clouds at 18000 feet AGL
Weather: no significant weather observed at this time

METAR text: RKPC 192000Z 10003KT 080V140 9999 FEW030 BKN180 09/02 Q1015 NOSIG
Conditions at: RKPC (JEJU INTL AIRPO , KR) observed 2000 UTC 19 March 2019
Temperature: 9.0°C (48°F)
Dewpoint: 2.0°C (36°F) [RH = 61%]
Pressure (altimeter): 29.97 inches Hg (1015.0 mb)
Winds: from the E (100 degrees) at 3 MPH (3 knots; 1.5 m/s)
Visibility: 6 or more miles (10+ km)
Ceiling: 18000 feet AGL
Clouds: few clouds at 3000 feet AGL
broken clouds at 18000 feet AGL
Weather: no significant weather observed at this time

METAR text: RKPC 191900Z 14003KT 9999 FEW030 SCT180 09/03 Q1016 NOSIG
Conditions at: RKPC (JEJU INTL AIRPO , KR) observed 1900 UTC 19 March 2019
Temperature: 9.0°C (48°F)
Dewpoint: 3.0°C (37°F) [RH = 66%]
Pressure (altimeter): 30.00 inches Hg (1016.0 mb)
Winds: from the SE (140 degrees) at 3 MPH (3 knots; 1.5 m/s)
Visibility: 6 or more miles (10+ km)
Ceiling: at least 12,000 feet AGL
Clouds: few clouds at 3000 feet AGL
scattered clouds at 18000 feet AGL
Weather: no significant weather observed at this time

METAR text: RKPC 191800Z 12003KT 9999 FEW030 SCT180 09/03 Q1017 NOSIG
Conditions at: RKPC (JEJU INTL AIRPO , KR) observed 1800 UTC 19 March 2019
Temperature: 9.0°C (48°F)
Dewpoint: 3.0°C (37°F) [RH = 66%]
Pressure (altimeter): 30.03 inches Hg (1017.0 mb)
Winds: from the ESE (120 degrees) at 3 MPH (3 knots; 1.5 m/s)
Visibility: 6 or more miles (10+ km)
Ceiling: at least 12,000 feet AGL
Clouds: few clouds at 3000 feet AGL
scattered clouds at 18000 feet AGL
Weather: no significant weather observed at this time

METAR text: RKPC 191700Z 16001KT 9999 FEW030 SCT180 09/04 Q1018 NOSIG
Conditions at: RKPC (JEJU INTL AIRPO , KR) observed 1700 UTC 19 March 2019
Temperature: 9.0°C (48°F)
Dewpoint: 4.0°C (39°F) [RH = 71%]
Pressure (altimeter): 30.06 inches Hg (1018.0 mb)
Winds: from the SSE (160 degrees) at 1 MPH (1 knots; 0.5 m/s)
Visibility: 6 or more miles (10+ km)
Ceiling: at least 12,000 feet AGL
Clouds: few clouds at 3000 feet AGL
scattered clouds at 18000 feet AGL
Weather: no significant weather observed at this time

METAR text: RKPC 191600Z 16004KT 7000 FEW030 SCT180 10/05 Q1019 NOSIG
Conditions at: RKPC (JEJU INTL AIRPO , KR) observed 1600 UTC 19 March 2019
Temperature: 10.0°C (50°F)
Dewpoint: 5.0°C (41°F) [RH = 71%]
Pressure (altimeter): 30.09 inches Hg (1019.0 mb)
Winds: from the SSE (160 degrees) at 5 MPH (4 knots; 2.1 m/s)
Visibility: 4 miles ( 7 km)
Ceiling: at least 12,000 feet AGL
Clouds: few clouds at 3000 feet AGL
scattered clouds at 18000 feet AGL
Weather: no significant weather observed at this time

METAR text: RKPC 191500Z 11002KT 8000 FEW030 10/05 Q1019 NOSIG
Conditions at: RKPC (JEJU INTL AIRPO , KR) observed 1500 UTC 19 March 2019
Temperature: 10.0°C (50°F)
Dewpoint: 5.0°C (41°F) [RH = 71%]
Pressure (altimeter): 30.09 inches Hg (1019.0 mb)
Winds: from the ESE (110 degrees) at 2 MPH (2 knots; 1.0 m/s)
Visibility: 5 miles ( 8 km)
Ceiling: at least 12,000 feet AGL
Clouds: few clouds at 3000 feet AGL
Weather: no significant weather observed at this time

METAR text: RKPC 191400Z 21004KT 8000 FEW030 09/05 Q1019 NOSIG
Conditions at: RKPC (JEJU INTL AIRPO , KR) observed 1400 UTC 19 March 2019
Temperature: 9.0°C (48°F)
Dewpoint: 5.0°C (41°F) [RH = 76%]
Pressure (altimeter): 30.09 inches Hg (1019.0 mb)
Winds: from the SSW (210 degrees) at 5 MPH (4 knots; 2.1 m/s)
Visibility: 5 miles ( 8 km)
Ceiling: at least 12,000 feet AGL
Clouds: few clouds at 3000 feet AGL
Weather: no significant weather observed at this time

METAR text: RKPC 191300Z 22002KT 8000 NSC 09/05 Q1019 NOSIG
Conditions at: RKPC (JEJU INTL AIRPO , KR) observed 1300 UTC 19 March 2019
Temperature: 9.0°C (48°F)
Dewpoint: 5.0°C (41°F) [RH = 76%]
Pressure (altimeter): 30.09 inches Hg (1019.0 mb)
Winds: from the SW (220 degrees) at 2 MPH (2 knots; 1.0 m/s)
Visibility: 5 miles ( 8 km)
Ceiling: at least 12,000 feet AGL
Clouds: sky clear below 12,000 feet AGL
Weather: no significant weather observed at this time

METAR text: RKPC 191200Z 19002KT 9000 NSC 10/06 Q1019 NOSIG
Conditions at: RKPC (JEJU INTL AIRPO , KR) observed 1200 UTC 19 March 2019
Temperature: 10.0°C (50°F)
Dewpoint: 6.0°C (43°F) [RH = 76%]
Pressure (altimeter): 30.09 inches Hg (1019.0 mb)
Winds: from the S (190 degrees) at 2 MPH (2 knots; 1.0 m/s)
Visibility: 6 miles ( 9 km)
Ceiling: at least 12,000 feet AGL
Clouds: sky clear below 12,000 feet AGL
Weather: no significant weather observed at this time

METAR text: RKPC 191100Z 22002KT CAVOK 11/07 Q1019 NOSIG
Conditions at: RKPC (JEJU INTL AIRPO , KR) observed 1100 UTC 19 March 2019
Temperature: 11.0°C (52°F)
Dewpoint: 7.0°C (45°F) [RH = 76%]
Pressure (altimeter): 30.09 inches Hg (1019.0 mb)
Winds: from the SW (220 degrees) at 2 MPH (2 knots; 1.0 m/s)
Visibility: 6 or more miles (10+ km)
Ceiling: ceiling and visibility are OK
Clouds: unknown
Weather: no significant weather observed at this time

METAR text: RKPC 191000Z 27004KT CAVOK 11/07 Q1018 NOSIG
Conditions at: RKPC (JEJU INTL AIRPO , KR) observed 1000 UTC 19 March 2019
Temperature: 11.0°C (52°F)
Dewpoint: 7.0°C (45°F) [RH = 76%]
Pressure (altimeter): 30.06 inches Hg (1018.0 mb)
Winds: from the W (270 degrees) at 5 MPH (4 knots; 2.1 m/s)
Visibility: 6 or more miles (10+ km)
Ceiling: ceiling and visibility are OK
Clouds: unknown
Weather: no significant weather observed at this time

METAR text: RKPC 190900Z 27004KT 230V300 CAVOK 12/07 Q1018 NOSIG
Conditions at: RKPC (JEJU INTL AIRPO , KR) observed 0900 UTC 19 March 2019
Temperature: 12.0°C (54°F)
Dewpoint: 7.0°C (45°F) [RH = 71%]
Pressure (altimeter): 30.06 inches Hg (1018.0 mb)
Winds: from the W (270 degrees) at 5 MPH (4 knots; 2.1 m/s)
Visibility: 6 or more miles (10+ km)
Ceiling: ceiling and visibility are OK
Clouds: unknown
Weather: no significant weather observed at this time

METAR text: RKPC 190800Z 27005KT 240V300 CAVOK 13/09 Q1018 NOSIG
Conditions at: RKPC (JEJU INTL AIRPO , KR) observed 0800 UTC 19 March 2019
Temperature: 13.0°C (55°F)
Dewpoint: 9.0°C (48°F) [RH = 77%]
Pressure (altimeter): 30.06 inches Hg (1018.0 mb)
Winds: from the W (270 degrees) at 6 MPH (5 knots; 2.6 m/s)
Visibility: 6 or more miles (10+ km)
Ceiling: ceiling and visibility are OK
Clouds: unknown
Weather: no significant weather observed at this time

METAR text: RKPC 190700Z 27009KT 250V310 CAVOK 13/09 Q1018 NOSIG
Conditions at: RKPC (JEJU INTL AIRPO , KR) observed 0700 UTC 19 March 2019
Temperature: 13.0°C (55°F)
Dewpoint: 9.0°C (48°F) [RH = 77%]
Pressure (altimeter): 30.06 inches Hg (1018.0 mb)
Winds: from the W (270 degrees) at 10 MPH (9 knots; 4.6 m/s)
Visibility: 6 or more miles (10+ km)
Ceiling: ceiling and visibility are OK
Clouds: unknown
Weather: no significant weather observed at this time

METAR text: RKPC 190600Z 28008KT CAVOK 13/08 Q1018 NOSIG
Conditions at: RKPC (JEJU INTL AIRPO , KR) observed 0600 UTC 19 March 2019
Temperature: 13.0°C (55°F)
Dewpoint: 8.0°C (46°F) [RH = 72%]
Pressure (altimeter): 30.06 inches Hg (1018.0 mb)
Winds: from the W (280 degrees) at 9 MPH (8 knots; 4.1 m/s)
Visibility: 6 or more miles (10+ km)
Ceiling: ceiling and visibility are OK
Clouds: unknown
Weather: no significant weather observed at this time

METAR text: RKPC 190500Z 28006KT 240V340 CAVOK 14/07 Q1019 NOSIG
Conditions at: RKPC (JEJU INTL AIRPO , KR) observed 0500 UTC 19 March 2019
Temperature: 14.0°C (57°F)
Dewpoint: 7.0°C (45°F) [RH = 63%]
Pressure (altimeter): 30.09 inches Hg (1019.0 mb)
Winds: from the W (280 degrees) at 7 MPH (6 knots; 3.1 m/s)
Visibility: 6 or more miles (10+ km)
Ceiling: ceiling and visibility are OK
Clouds: unknown
Weather: no significant weather observed at this time

METAR text: RKPC 190400Z 26006KT 220V300 CAVOK 14/07 Q1019 NOSIG
Conditions at: RKPC (JEJU INTL AIRPO , KR) observed 0400 UTC 19 March 2019
Temperature: 14.0°C (57°F)
Dewpoint: 7.0°C (45°F) [RH = 63%]
Pressure (altimeter): 30.09 inches Hg (1019.0 mb)
Winds: from the W (260 degrees) at 7 MPH (6 knots; 3.1 m/s)
Visibility: 6 or more miles (10+ km)
Ceiling: ceiling and visibility are OK
Clouds: unknown
Weather: no significant weather observed at this time

METAR text: RKPC 190300Z 28004KT 230V010 CAVOK 13/07 Q1019 NOSIG
Conditions at: RKPC (JEJU INTL AIRPO , KR) observed 0300 UTC 19 March 2019
Temperature: 13.0°C (55°F)
Dewpoint: 7.0°C (45°F) [RH = 67%]
Pressure (altimeter): 30.09 inches Hg (1019.0 mb)
Winds: from the W (280 degrees) at 5 MPH (4 knots; 2.1 m/s)
Visibility: 6 or more miles (10+ km)
Ceiling: ceiling and visibility are OK
Clouds: unknown
Weather: no significant weather observed at this time

METAR text: RKPC 190200Z 27004KT CAVOK 13/07 Q1019 NOSIG
Conditions at: RKPC (JEJU INTL AIRPO , KR) observed 0200 UTC 19 March 2019
Temperature: 13.0°C (55°F)
Dewpoint: 7.0°C (45°F) [RH = 67%]
Pressure (altimeter): 30.09 inches Hg (1019.0 mb)
Winds: from the W (270 degrees) at 5 MPH (4 knots; 2.1 m/s)
Visibility: 6 or more miles (10+ km)
Ceiling: ceiling and visibility are OK
Clouds: unknown
Weather: no significant weather observed at this time

METAR text: RKPC 190100Z 29005KT 250V330 CAVOK 12/06 Q1020 NOSIG
Conditions at: RKPC (JEJU INTL AIRPO , KR) observed 0100 UTC 19 March 2019
Temperature: 12.0°C (54°F)
Dewpoint: 6.0°C (43°F) [RH = 67%]
Pressure (altimeter): 30.12 inches Hg (1020.0 mb)
Winds: from the WNW (290 degrees) at 6 MPH (5 knots; 2.6 m/s)
Visibility: 6 or more miles (10+ km)
Ceiling: ceiling and visibility are OK
Clouds: unknown
Weather: no significant weather observed at this time

METAR text: RKPC 190000Z 25005KT CAVOK 12/05 Q1019 NOSIG
Conditions at: RKPC (JEJU INTL AIRPO , KR) observed 0000 UTC 19 March 2019
Temperature: 12.0°C (54°F)
Dewpoint: 5.0°C (41°F) [RH = 62%]
Pressure (altimeter): 30.09 inches Hg (1019.0 mb)
Winds: from the WSW (250 degrees) at 6 MPH (5 knots; 2.6 m/s)
Visibility: 6 or more miles (10+ km)
Ceiling: ceiling and visibility are OK
Clouds: unknown
Weather: no significant weather observed at this time

METAR text: RKPC 182300Z 21005KT CAVOK 10/07 Q1018 NOSIG
Conditions at: RKPC (JEJU INTL AIRPO , KR) observed 2300 UTC 18 March 2019
Temperature: 10.0°C (50°F)
Dewpoint: 7.0°C (45°F) [RH = 82%]
Pressure (altimeter): 30.06 inches Hg (1018.0 mb)
Winds: from the SSW (210 degrees) at 6 MPH (5 knots; 2.6 m/s)
Visibility: 6 or more miles (10+ km)
Ceiling: ceiling and visibility are OK
Clouds: unknown
Weather: no significant weather observed at this time

METAR text: RKPC 182200Z 21005KT CAVOK 07/05 Q1017 NOSIG
Conditions at: RKPC (JEJU INTL AIRPO , KR) observed 2200 UTC 18 March 2019
Temperature: 7.0°C (45°F)
Dewpoint: 5.0°C (41°F) [RH = 87%]
Pressure (altimeter): 30.03 inches Hg (1017.0 mb)
Winds: from the SSW (210 degrees) at 6 MPH (5 knots; 2.6 m/s)
Visibility: 6 or more miles (10+ km)
Ceiling: ceiling and visibility are OK
Clouds: unknown
Weather: no significant weather observed at this time

METAR text: RKPC 182100Z 22005KT 9999 FEW030 08/05 Q1017 NOSIG
Conditions at: RKPC (JEJU INTL AIRPO , KR) observed 2100 UTC 18 March 2019
Temperature: 8.0°C (46°F)
Dewpoint: 5.0°C (41°F) [RH = 81%]
Pressure (altimeter): 30.03 inches Hg (1017.0 mb)
Winds: from the SW (220 degrees) at 6 MPH (5 knots; 2.6 m/s)
Visibility: 6 or more miles (10+ km)
Ceiling: at least 12,000 feet AGL
Clouds: few clouds at 3000 feet AGL
Weather: no significant weather observed at this time

METAR text: RKPC 182000Z 29004KT 230V320 9999 SCT020 10/07 Q1017 NOSIG
Conditions at: RKPC (JEJU INTL AIRPO , KR) observed 2000 UTC 18 March 2019
Temperature: 10.0°C (50°F)
Dewpoint: 7.0°C (45°F) [RH = 82%]
Pressure (altimeter): 30.03 inches Hg (1017.0 mb)
Winds: from the WNW (290 degrees) at 5 MPH (4 knots; 2.1 m/s)
Visibility: 6 or more miles (10+ km)
Ceiling: at least 12,000 feet AGL
Clouds: scattered clouds at 2000 feet AGL
Weather: no significant weather observed at this time

METAR text: RKPC 181900Z 23005KT 200V280 9999 SCT020 BKN120 09/07 Q1016 NOSIG
Conditions at: RKPC (JEJU INTL AIRPO , KR) observed 1900 UTC 18 March 2019
Temperature: 9.0°C (48°F)
Dewpoint: 7.0°C (45°F) [RH = 87%]
Pressure (altimeter): 30.00 inches Hg (1016.0 mb)
Winds: from the SW (230 degrees) at 6 MPH (5 knots; 2.6 m/s)
Visibility: 6 or more miles (10+ km)
Ceiling: 12000 feet AGL
Clouds: scattered clouds at 2000 feet AGL
broken clouds at 12000 feet AGL
Weather: no significant weather observed at this time

Forecast for: RKPC (JEJU INTL AIRPO , KR)
Text: TAF RKPC 200500Z 2006/2112 21017G35KT 6000 -RA FEW010 BKN030 OVC100 TN12/2020Z TX14/2104Z
Forecast period: 0600 to 1200 UTC 20 March 2019
Forecast type: FROM: standard forecast or significant change
Winds: from the SSW (210 degrees) at 20 MPH (17 knots; 8.7 m/s)
gusting to 40 MPH (35 knots; 18.0 m/s)
Visibility: 4 miles (6 km)
Ceiling: 3000 feet AGL
Clouds: few clouds at 1000 feet AGL
broken clouds at 3000 feet AGL
overcast cloud deck at 10000 feet AGL
Weather: -RA  (light rain)
Text: TEMPO 2006/2008 -TSRA FEW010CB BKN025 OVC080
Forecast period: 0600 to 0800 UTC 20 March 2019
Forecast type: TEMPORARY: The following changes expected for less than half the time period
Visibility: missing
Ceiling: 2500 feet AGL
Clouds: few clouds at 1000 feet AGL
broken clouds at 2500 feet AGL
overcast cloud deck at 8000 feet AGL
Weather: -TSRA  (light rain associated with thunderstorm(s))
Text: BECMG 2012/2013 4200
Forecast period: 1200 to 1800 UTC 20 March 2019
Forecast type: BECOMING: Conditions expected to become as follows by 1300 UTC 20 March 2019
Winds: from the SSW (210 degrees) at 20 MPH (17 knots; 8.7 m/s)
gusting to 40 MPH (35 knots; 18.0 m/s)
Visibility: 2.61 miles (4.20 km)
Ceiling: 3000 feet AGL
Clouds: few clouds at 1000 feet AGL
broken clouds at 3000 feet AGL
overcast cloud deck at 10000 feet AGL
Weather: -RA  (light rain)
Text: BECMG 2018/2019 27015G25KT 6000 NSW
Forecast period: 1800 to 2300 UTC 20 March 2019
Forecast type: BECOMING: Conditions expected to become as follows by 1900 UTC 20 March 2019
Winds: from the W (270 degrees) at 17 MPH (15 knots; 7.7 m/s)
gusting to 29 MPH (25 knots; 12.9 m/s)
Visibility: 4 miles (6 km)
Ceiling: 3000 feet AGL
Clouds: few clouds at 1000 feet AGL
broken clouds at 3000 feet AGL
overcast cloud deck at 10000 feet AGL
Weather: NSW  (no significant weather)
Text: BECMG 2023/2024 30011KT SCT030 BKN120
Forecast period: 2300 UTC 20 March 2019 to 1200 UTC 21 March 2019
Forecast type: BECOMING: Conditions expected to become as follows by 0000 UTC 21 March 2019
Winds: from the WNW (300 degrees) at 13 MPH (11 knots; 5.7 m/s)
Visibility: 4 miles (6 km)
Ceiling: 12000 feet AGL
Clouds: scattered clouds at 3000 feet AGL
broken clouds at 12000 feet AGL
Weather: NSW  (no significant weather)